Time;durP1;ratioP1;P1;durP2;ratioP2;P2;SDS_P1;SDS_P2;PMS_P1;PMS_P2;Temp;Humidity;BMP_temperature;BMP_pressure;BME280_temperature;BME280_humidity;BME280_pressure;Samples;Min_cycle;Max_cycle;Signal;HPM_P1;HPM_P2
2021/11/16 00:02:09;;;;;;;9.65;7.60;;;20.20;44.50;;;23.80;29.90;102440.88;5075851;28;20044;-39
2021/11/16 00:04:35;;;;;;;11.43;8.43;;;20.20;44.60;;;23.80;29.90;102432.88;5093673;28;20405;-40
2021/11/16 00:07:05;;;;;;;10.13;7.75;;;20.20;44.50;;;23.81;30.14;102431.94;5093429;28;20052;-39
2021/11/16 00:09:30;;;;;;;10.60;7.90;;;20.20;44.50;;;23.80;29.92;102419.50;5093499;28;20048;-40
2021/11/16 00:11:56;;;;;;;9.20;6.78;;;20.10;44.50;;;23.80;30.16;102420.38;5093446;28;20052;-39
2021/11/16 00:14:22;;;;;;;9.85;7.40;;;20.10;45.00;;;23.77;30.02;102407.19;5093455;28;20113;-39
2021/11/16 00:16:48;;;;;;;8.95;7.22;;;20.10;44.50;;;23.77;30.04;102414.31;5093917;28;20386;-39
2021/11/16 00:19:15;;;;;;;10.30;8.00;;;20.20;44.50;;;23.77;29.84;102404.53;5093286;28;20041;-40
2021/11/16 00:21:46;;;;;;;10.73;7.90;;;20.10;44.50;;;23.79;30.12;102410.66;5093390;28;20112;-39
2021/11/16 00:24:13;;;;;;;10.68;7.22;;;20.10;44.50;;;23.81;29.86;102410.56;5093611;28;20040;-40
2021/11/16 00:26:43;;;;;;;9.13;6.82;;;20.10;44.50;;;23.77;30.16;102404.53;5093387;28;20511;-39
2021/11/16 00:29:10;;;;;;;10.10;7.53;;;20.10;44.50;;;23.78;29.96;102408.03;5093155;28;20048;-40
2021/11/16 00:31:36;;;;;;;9.98;7.22;;;20.10;44.50;;;23.81;29.92;102410.56;5093089;28;20044;-40
2021/11/16 00:34:03;;;;;;;10.00;7.47;;;20.10;44.40;;;23.80;30.13;102411.50;5093146;28;20373;-41
2021/11/16 00:36:29;;;;;;;10.00;7.10;;;20.10;44.50;;;23.80;30.09;102411.50;5092987;28;20056;-39
2021/11/16 00:38:56;;;;;;;10.18;7.43;;;20.10;44.40;;;23.77;30.20;102400.97;5093026;28;20036;-41
2021/11/16 00:41:22;;;;;;;10.27;7.65;;;20.10;44.40;;;23.76;30.06;102392.09;5093013;28;20093;-39
2021/11/16 00:43:49;;;;;;;10.07;7.50;;;20.10;44.40;;;23.76;30.06;102394.78;5092940;28;20044;-39
2021/11/16 00:46:16;;;;;;;9.13;6.97;;;20.10;44.40;;;23.79;30.11;102396.41;5093034;28;20048;-40
2021/11/16 00:48:42;;;;;;;9.57;6.97;;;20.10;44.40;;;23.79;29.91;102389.28;5092855;28;20510;-40
2021/11/16 00:51:09;;;;;;;9.45;6.68;;;20.10;44.40;;;23.79;29.94;102388.38;5092983;28;20087;-40
2021/11/16 00:53:37;;;;;;;9.73;6.88;;;20.10;44.40;;;23.78;30.10;102389.34;5092804;28;20048;-39
2021/11/16 00:56:05;;;;;;;8.85;6.88;;;20.10;44.40;;;23.77;29.98;102382.25;5093083;28;20048;-39
2021/11/16 00:58:32;;;;;;;8.75;6.85;;;20.10;44.40;;;23.76;30.00;102386.75;5092684;28;20047;-39
2021/11/16 01:00:58;;;;;;;9.38;7.10;;;20.10;44.40;;;23.77;30.17;102391.16;5093049;28;20399;-39
2021/11/16 01:03:25;;;;;;;9.68;7.28;;;20.10;44.40;;;23.73;30.06;102386.91;5092833;28;20494;-39
2021/11/16 01:05:53;;;;;;;10.93;7.20;;;20.10;44.30;;;23.76;29.97;102384.09;5092710;28;20426;-39
2021/11/16 01:08:18;;;;;;;9.10;7.07;;;20.10;44.40;;;23.77;29.86;102380.47;5091926;28;20097;-40
2021/11/16 01:10:45;;;;;;;10.63;7.95;;;20.10;44.40;;;23.79;30.16;102391.94;5092660;28;20433;-39
2021/11/16 01:13:16;;;;;;;9.10;7.15;;;20.10;44.40;;;23.77;30.07;102388.50;5092664;28;20093;-39
2021/11/16 01:15:44;;;;;;;;;;;20.10;44.40;;;23.85;29.73;102372.09;5093047;28;20072;-39
2021/11/16 01:18:13;;;;;;;9.90;7.10;;;20.10;44.30;;;23.81;29.90;102382.03;5092442;28;19916;-40
2021/11/16 01:20:40;;;;;;;10.35;7.35;;;20.10;44.30;;;23.78;29.78;102376.00;5092319;28;20540;-39
2021/11/16 01:23:10;;;;;;;10.00;7.47;;;20.10;44.30;;;23.76;30.08;102369.88;5092552;28;20621;-39
2021/11/16 01:25:39;;;;;;;8.55;6.93;;;20.10;44.40;;;23.76;30.06;102365.38;5092514;28;20090;-38
2021/11/16 01:28:11;;;;;;;11.48;6.95;;;20.10;44.40;;;23.76;30.13;102361.88;5092408;28;20095;-39
2021/11/16 01:30:45;;;;;;;9.80;7.10;;;20.10;44.40;;;23.75;30.15;102374.31;5092325;28;20480;-40
2021/11/16 01:33:14;;;;;;;9.35;7.15;;;20.10;44.40;;;23.76;30.11;102372.53;5074615;28;20094;-39
2021/11/16 01:35:43;;;;;;;8.90;7.30;;;20.10;44.40;;;23.74;29.86;102371.72;5092493;28;20392;-40
2021/11/16 01:38:12;;;;;;;9.00;7.50;;;20.10;44.40;;;23.71;29.98;102364.75;5092547;28;20051;-39
2021/11/16 01:40:40;;;;;;;8.10;7.03;;;20.10;44.40;;;23.75;29.93;102373.47;5092119;28;20064;-40
2021/11/16 01:43:09;;;;;;;9.55;6.75;;;20.10;44.40;;;23.75;30.09;102370.81;5092541;28;20044;-40
2021/11/16 01:45:37;;;;;;;8.80;6.70;;;20.10;44.40;;;23.74;29.89;102369.94;5092204;28;20048;-39
2021/11/16 01:48:05;;;;;;;8.75;6.68;;;20.10;44.40;;;23.73;29.81;102365.53;5092027;28;20051;-38
2021/11/16 01:50:35;;;;;;;10.40;7.18;;;20.10;44.40;;;23.72;29.91;102353.13;5092095;28;20113;-39
2021/11/16 01:53:04;;;;;;;8.27;6.55;;;20.10;44.40;;;23.73;30.00;102351.31;5092257;28;20527;-39
2021/11/16 01:55:30;;;;;;;8.88;6.78;;;20.10;44.40;;;23.74;30.05;102356.59;5092070;28;20048;-39
2021/11/16 01:57:56;;;;;;;9.82;7.07;;;20.10;44.40;;;23.74;29.85;102353.03;5091874;28;20067;-41
2021/11/16 02:00:29;;;;;;;9.23;6.82;;;20.10;44.40;;;23.68;30.05;102341.72;5092401;28;20483;-40
2021/11/16 02:02:55;;;;;;;7.93;6.55;;;20.10;44.40;;;23.76;30.11;102348.50;5092213;28;20052;-39
2021/11/16 02:05:43;;;;;;;8.90;7.35;;;20.10;44.40;;;23.71;29.93;102332.72;5092318;28;20084;-39
2021/11/16 02:08:11;;;;;;;9.00;6.63;;;20.10;44.40;;;23.73;29.92;102338.84;5073441;28;20156;-40
2021/11/16 02:10:41;;;;;;;10.15;7.45;;;20.10;44.40;;;23.73;29.90;102340.66;5092250;28;20067;-39
2021/11/16 02:13:08;;;;;;;9.20;6.80;;;20.10;44.40;;;23.75;29.79;102344.94;5091952;28;20040;-40
2021/11/16 02:15:37;;;;;;;8.93;6.93;;;20.10;44.40;;;23.72;30.07;102336.22;5091741;28;20138;-39
2021/11/16 02:18:10;;;;;;;8.30;6.45;;;20.10;44.40;;;23.71;29.90;102327.38;5092041;28;20048;-39
2021/11/16 02:20:40;;;;;;;9.23;7.05;;;20.10;44.40;;;23.72;30.11;102328.22;5093639;28;20127;-40
2021/11/16 02:23:07;;;;;;;9.15;6.82;;;20.10;44.40;;;23.73;30.12;102327.28;5095239;28;20048;-39
2021/11/16 02:25:34;;;;;;;8.70;6.20;;;20.10;44.40;;;23.73;30.15;102321.94;5095405;28;20097;-39
2021/11/16 02:28:02;;;;;;;9.25;6.85;;;20.10;44.40;;;23.67;29.93;102302.63;5095301;28;20044;-39
2021/11/16 02:30:28;;;;;;;8.98;7.13;;;20.10;44.40;;;23.75;29.86;102314.72;5094944;28;20480;-40
2021/11/16 02:32:55;;;;;;;9.10;6.88;;;20.10;44.40;;;23.73;30.03;102314.78;5094984;28;20051;-39
2021/11/16 02:35:24;;;;;;;9.15;7.13;;;20.10;44.40;;;23.68;29.83;102296.31;5095078;28;20471;-40
2021/11/16 02:37:51;;;;;;;9.50;7.07;;;20.10;44.40;;;23.73;29.89;102308.59;5094802;28;20146;-39
2021/11/16 02:40:18;;;;;;;8.10;6.53;;;20.10;44.40;;;23.72;30.15;102299.69;5094896;28;20046;-39
2021/11/16 02:42:44;;;;;;;8.52;6.50;;;20.10;44.40;;;23.73;29.85;102295.25;5094854;28;20052;-40
2021/11/16 02:45:12;;;;;;;8.60;6.75;;;20.10;44.30;;;23.72;29.99;102298.84;5076812;28;20170;-39
2021/11/16 02:47:38;;;;;;;8.70;6.50;;;20.10;44.30;;;23.70;29.91;102288.25;5094651;28;20055;-40
2021/11/16 02:50:05;;;;;;;8.82;7.00;;;20.00;44.30;;;23.74;29.80;102294.28;5094834;28;20039;-40
2021/11/16 02:52:31;;;;;;;7.30;6.45;;;20.10;44.30;;;23.73;29.81;102290.75;5094789;28;20051;-41
2021/11/16 02:54:57;;;;;;;9.32;6.63;;;20.10;44.30;;;23.74;29.91;102286.28;5094616;28;20039;-39
2021/11/16 02:57:23;;;;;;;8.70;6.78;;;20.00;44.30;;;23.72;29.76;102286.34;5094985;28;20040;-39
2021/11/16 02:59:50;;;;;;;8.73;6.63;;;20.10;44.40;;;23.71;29.72;102275.78;5094684;28;20054;-39
2021/11/16 03:02:15;;;;;;;8.73;6.32;;;20.10;44.30;;;23.73;29.87;102282.75;5094519;28;20047;-39
2021/11/16 03:04:45;;;;;;;8.75;6.47;;;20.10;44.30;;;23.72;29.99;102290.84;5094603;28;20075;-40
2021/11/16 03:07:13;;;;;;;7.57;5.95;;;20.10;44.30;;;23.73;30.01;102282.75;5094596;28;20056;-39
2021/11/16 03:09:50;;;;;;;8.73;5.85;;;20.10;44.30;;;23.70;30.13;102290.91;5094809;28;20040;-39
2021/11/16 03:12:15;;;;;;;8.38;6.18;;;20.10;44.30;;;23.72;30.00;102289.03;5094767;28;20058;-40
2021/11/16 03:14:41;;;;;;;9.45;7.20;;;20.10;44.30;;;23.76;29.92;102292.44;5094609;28;20052;-39
2021/11/16 03:17:07;;;;;;;8.15;6.45;;;20.10;44.20;;;23.75;30.01;102288.00;5094579;28;20098;-43
2021/11/16 03:19:34;;;;;;;8.63;6.50;;;20.10;44.20;;;23.77;29.97;102291.47;5094332;28;20403;-39
2021/11/16 03:22:00;;;;;;;7.78;5.95;;;20.10;44.20;;;23.75;30.03;102288.88;5094680;28;20048;-40
2021/11/16 03:24:32;;;;;;;8.40;6.57;;;20.10;44.20;;;23.77;29.90;102287.00;5094286;28;20048;-39
2021/11/16 03:26:58;;;;;;;8.23;6.10;;;20.10;44.10;;;23.76;30.07;102281.75;5094207;28;20131;-40
2021/11/16 03:29:25;;;;;;;9.32;6.47;;;20.10;44.20;;;23.78;29.93;102288.72;5094290;28;20091;-40
2021/11/16 03:32:04;;;;;;;7.90;6.22;;;20.20;44.20;;;23.77;29.81;102281.66;5093816;28;20127;-40
2021/11/16 03:34:29;;;;;;;8.38;6.35;;;20.20;44.20;;;23.80;29.98;102277.97;5094416;28;20383;-39
2021/11/16 03:36:55;;;;;;;8.35;6.07;;;20.20;44.00;;;23.82;30.02;102278.75;5094379;28;20048;-39
2021/11/16 03:39:22;;;;;;;8.63;6.50;;;20.20;44.00;;;23.78;29.76;102278.03;5093748;28;20553;-39
2021/11/16 03:41:48;;;;;;;8.15;5.97;;;20.20;44.10;;;23.83;30.01;102273.34;5075851;28;20047;-40
2021/11/16 03:44:14;;;;;;;6.88;5.55;;;20.20;44.00;;;23.85;30.02;102282.13;5094219;28;20040;-40
2021/11/16 03:46:40;;;;;;;9.23;6.40;;;20.20;43.90;;;23.85;29.72;102267.94;5093887;28;20479;-40
2021/11/16 03:49:06;;;;;;;8.73;6.45;;;20.20;44.00;;;23.86;29.81;102265.19;5093956;28;20432;-40
2021/11/16 03:51:32;;;;;;;9.45;6.85;;;20.30;44.00;;;23.88;29.81;102266.91;5093683;28;20056;-39
2021/11/16 03:53:57;;;;;;;7.65;6.13;;;20.30;44.00;;;23.86;29.73;102257.16;5093745;28;20092;-39
2021/11/16 03:56:23;;;;;;;7.68;6.13;;;20.30;43.90;;;23.89;30.04;102257.94;5093937;28;20044;-40
2021/11/16 03:58:49;;;;;;;6.60;5.80;;;20.30;43.90;;;23.92;29.84;102258.63;5094207;28;20460;-40
2021/11/16 04:01:17;;;;;;;7.65;6.13;;;20.40;43.90;;;23.94;29.95;102253.22;5093682;28;20126;-40
2021/11/16 04:03:43;;;;;;;8.05;6.38;;;20.40;43.90;;;23.91;29.79;102253.41;5093679;28;20060;-40
2021/11/16 04:06:10;;;;;;;7.05;5.97;;;20.40;43.80;;;23.92;29.82;102239.94;5093536;28;20040;-40
2021/11/16 04:08:36;;;;;;;7.78;5.78;;;20.40;43.80;;;23.97;29.87;102247.72;5093422;28;20089;-40
2021/11/16 04:11:03;;;;;;;8.73;6.00;;;20.40;43.80;;;23.98;29.81;102246.78;5093513;28;20047;-39
2021/11/16 04:13:29;;;;;;;8.73;6.55;;;20.40;43.80;;;24.00;29.72;102250.22;5093471;28;20514;-39
2021/11/16 04:15:55;;;;;;;7.55;6.10;;;20.40;43.70;;;23.99;29.85;102251.16;5093325;28;20173;-40
2021/11/16 04:18:21;;;;;;;8.43;6.50;;;20.50;43.70;;;24.03;29.66;102255.41;5093385;28;20052;-39
2021/11/16 04:20:50;;;;;;;7.90;6.20;;;20.50;43.60;;;24.00;29.73;102250.22;5093184;28;20044;-40
2021/11/16 04:23:17;;;;;;;7.50;5.90;;;20.50;43.60;;;23.99;29.73;102244.03;5093387;28;20082;-40
2021/11/16 04:25:45;;;;;;;7.03;6.13;;;20.50;43.50;;;24.02;29.53;102251.00;5093317;28;20131;-39
2021/11/16 04:28:11;;;;;;;9.93;6.43;;;20.50;43.50;;;24.08;29.59;102255.19;5093203;28;20496;-40
2021/11/16 04:30:38;;;;;;;7.28;5.80;;;20.50;43.50;;;24.09;29.79;102255.09;5093183;28;20384;-41
2021/11/16 04:33:05;;;;;;;7.53;6.18;;;20.50;43.60;;;24.09;29.68;102247.09;5093192;28;20100;-39
2021/11/16 04:35:34;;;;;;;9.20;6.25;;;20.50;43.50;;;24.07;29.56;102238.25;5093033;28;20062;-39
2021/11/16 04:38:03;;;;;;;7.57;6.20;;;20.50;43.40;;;24.10;29.69;102243.44;5093036;28;20052;-40
2021/11/16 04:40:36;;;;;;;8.10;6.50;;;20.60;43.40;;;24.05;29.60;102230.31;5093047;28;20545;-40
2021/11/16 04:43:06;;;;;;;8.40;6.13;;;20.60;43.40;;;24.10;29.44;102245.25;5092464;28;20538;-39
2021/11/16 04:45:35;;;;;;;7.90;6.45;;;20.60;43.40;;;24.09;29.67;102239.06;5093383;28;20112;-39
2021/11/16 04:48:10;;;;;;;7.53;5.90;;;20.60;43.40;;;24.12;29.66;102236.19;5093270;28;20056;-39
2021/11/16 05:04:16;;;;;;;7.50;6.28;;;20.60;43.40;;;24.14;29.43;102231.66;5090726;28;20036;-40
2021/11/16 05:06:43;;;;;;;6.90;5.45;;;20.60;43.40;;;24.13;29.43;102229.06;5092804;28;20055;-40
2021/11/16 05:09:10;;;;;;;7.03;5.65;;;20.60;43.50;;;24.16;29.46;102228.91;5092758;28;20085;-39
2021/11/16 05:11:36;;;;;;;7.95;5.78;;;20.60;43.40;;;24.13;29.50;102224.59;5074715;28;20059;-39
2021/11/16 05:14:02;;;;;;;7.50;5.90;;;20.60;43.40;;;24.13;29.52;102223.72;5092657;28;20119;-40
2021/11/16 05:16:28;;;;;;;7.97;6.03;;;20.60;43.40;;;24.14;29.60;102223.66;5092523;28;20134;-39
2021/11/16 05:18:54;;;;;;;6.63;5.60;;;20.60;43.40;;;24.13;29.58;102224.59;5092393;28;20059;-40
2021/11/16 05:21:20;;;;;;;6.53;5.82;;;20.60;43.40;;;24.16;29.48;102227.09;5092529;28;20399;-39
2021/11/16 05:23:53;;;;;;;6.47;5.20;;;20.60;43.40;;;24.13;29.46;102224.59;5092869;28;20048;-39
2021/11/16 05:26:21;;;;;;;7.10;5.57;;;20.60;43.40;;;24.15;29.59;102217.34;5092605;28;20050;-40
2021/11/16 05:28:47;;;;;;;7.43;6.18;;;20.60;43.50;;;24.16;29.58;102219.06;5092365;28;20097;-39
2021/11/16 05:31:15;;;;;;;7.00;5.68;;;20.60;43.40;;;24.15;29.40;102211.13;5092384;28;20055;-39
2021/11/16 05:33:42;;;;;;;8.50;6.50;;;20.60;43.40;;;24.17;29.27;102210.13;5092396;28;20079;-39
2021/11/16 05:36:09;;;;;;;6.63;5.47;;;20.60;43.40;;;24.15;29.41;102212.00;5092579;28;20052;-39
2021/11/16 05:38:38;;;;;;;7.53;5.75;;;20.60;43.40;;;24.16;29.25;102213.72;5092221;28;20052;-39
2021/11/16 05:41:05;;;;;;;7.63;5.80;;;20.60;44.00;;;24.18;29.43;102214.50;5092295;28;20090;-39
2021/11/16 05:43:32;;;;;;;7.18;6.03;;;20.60;43.40;;;24.18;29.25;102214.50;5092281;28;20040;-40
2021/11/16 05:46:00;;;;;;;7.10;5.80;;;20.60;43.40;;;24.16;29.51;102218.22;5092562;28;20067;-40
2021/11/16 05:48:33;;;;;;;8.55;6.00;;;20.60;43.40;;;24.17;29.48;102219.94;5092507;28;20357;-40
2021/11/16 05:50:59;;;;;;;7.35;5.55;;;20.60;43.40;;;24.18;29.47;102227.00;5092541;28;20051;-39
2021/11/16 05:53:25;;;;;;;7.15;5.65;;;20.60;43.40;;;24.19;29.27;102228.72;5092148;28;20095;-39
2021/11/16 05:55:51;;;;;;;8.02;6.18;;;20.60;43.40;;;24.18;29.47;102233.22;5095465;28;20056;-39
2021/11/16 05:58:19;;;;;;;7.15;5.38;;;20.60;43.40;;;24.20;29.50;102236.66;5095573;28;20040;-40
2021/11/16 06:00:47;;;;;;;8.57;5.75;;;20.60;43.40;;;24.20;29.33;102243.81;5095607;28;20094;-39
2021/11/16 06:03:13;;;;;;;7.40;5.57;;;20.60;43.40;;;24.17;29.20;102234.19;5095572;28;20048;-40
2021/11/16 06:05:39;;;;;;;5.75;4.82;;;20.60;43.40;;;24.19;29.54;102240.28;5095775;28;20093;-40
2021/11/16 06:08:07;;;;;;;7.55;5.85;;;20.60;43.40;;;24.20;29.69;102239.31;5095557;28;20052;-39
2021/11/16 06:10:35;;;;;;;6.95;5.65;;;20.60;43.40;;;24.17;29.30;102235.97;5095476;28;20109;-40
2021/11/16 06:13:01;;;;;;;7.63;5.60;;;20.60;43.40;;;24.20;29.42;102233.97;5095364;28;20499;-39
2021/11/16 06:15:27;;;;;;;7.35;5.50;;;20.60;43.40;;;24.20;29.40;102233.97;5094750;28;20488;-39
2021/11/16 06:17:53;;;;;;;7.43;6.13;;;20.60;43.30;;;24.18;29.47;102229.69;5095006;28;20101;-39
2021/11/16 06:20:21;;;;;;;7.40;5.40;;;20.60;43.30;;;24.17;29.43;102231.50;5094957;28;20055;-40
2021/11/16 06:22:49;;;;;;;7.97;6.30;;;20.60;43.40;;;24.17;29.49;102228.84;5076233;28;20044;-39
2021/11/16 06:25:16;;;;;;;6.85;5.75;;;20.60;43.40;;;24.16;29.28;102229.75;5095209;28;20173;-40
2021/11/16 06:27:42;;;;;;;7.68;5.70;;;20.60;43.40;;;24.20;29.25;102230.47;5094878;28;20044;-40
2021/11/16 06:30:09;;;;;;;7.75;6.25;;;20.60;43.30;;;24.20;29.26;102235.81;5095338;28;20442;-39
2021/11/16 06:32:35;;;;;;;8.15;6.10;;;20.60;43.40;;;24.20;29.29;102238.47;5095030;28;20093;-39
2021/11/16 06:35:01;;;;;;;8.52;6.10;;;20.60;43.40;;;24.17;29.37;102239.53;5095071;28;20054;-39
2021/11/16 06:37:27;;;;;;;8.05;6.00;;;20.60;43.40;;;24.21;29.34;102245.56;5095623;28;20467;-39
2021/11/16 06:39:53;;;;;;;8.23;6.15;;;20.60;43.40;;;24.19;29.19;102237.63;5095248;28;20058;-41
2021/11/16 06:42:19;;;;;;;6.72;5.32;;;20.60;43.40;;;24.20;29.27;102242.00;5095155;28;20498;-40
2021/11/16 06:44:46;;;;;;;7.88;5.97;;;20.60;43.40;;;24.19;29.16;102239.41;5095145;28;20048;-40
2021/11/16 06:47:14;;;;;;;7.97;5.60;;;20.60;43.40;;;24.19;29.33;102236.75;5094775;28;20127;-39
2021/11/16 06:49:45;;;;;;;8.10;6.15;;;20.60;43.40;;;24.19;29.45;102229.59;5094833;28;20047;-39
2021/11/16 06:52:10;;;;;;;5.20;4.27;;;20.60;43.40;;;24.22;29.18;102231.22;5095052;28;20119;-39
2021/11/16 06:54:36;;;;;;;6.75;5.30;;;20.60;43.40;;;24.22;29.27;102234.78;5094768;28;20104;-39
2021/11/16 06:57:03;;;;;;;7.75;5.93;;;20.60;43.40;;;24.19;29.37;102234.94;5095087;28;20048;-39
2021/11/16 06:59:29;;;;;;;7.18;5.72;;;20.60;43.30;;;24.19;29.23;102234.06;5094563;28;20092;-40
2021/11/16 07:01:55;;;;;;;7.30;5.80;;;20.60;43.40;;;24.20;29.26;102233.97;5094805;28;20052;-39
2021/11/16 07:04:21;;;;;;;6.32;5.07;;;20.60;43.30;;;24.20;29.14;102230.47;5076540;28;20058;-40
2021/11/16 07:06:50;;;;;;;6.57;5.22;;;20.60;43.40;;;24.17;29.47;102223.47;5093863;28;20102;-39
2021/11/16 07:09:19;;;;;;;6.40;5.07;;;20.60;43.40;;;24.20;29.25;102233.97;5094429;28;20112;-39
2021/11/16 07:11:54;;;;;;;7.53;5.60;;;20.60;43.40;;;24.19;29.37;102237.63;5094430;28;20048;-39
2021/11/16 07:14:23;;;;;;;8.30;5.63;;;20.60;43.40;;;24.18;29.39;102235.03;5094399;28;20047;-40
2021/11/16 07:16:54;;;;;;;7.65;5.55;;;20.50;43.40;;;24.21;29.27;102245.56;5094186;28;20134;-40
2021/11/16 07:19:35;;;;;;;7.22;5.97;;;20.60;43.40;;;24.17;29.28;102236.84;5094638;28;20081;-39
2021/11/16 07:22:07;;;;;;;6.60;5.55;;;20.60;43.50;;;24.19;29.50;102234.94;5094249;28;20513;-39
2021/11/16 07:25:05;;;;;;;7.63;5.93;;;20.50;43.40;;;24.18;29.45;102232.34;5094281;28;20055;-40
2021/11/16 07:27:48;;;;;;;8.13;5.93;;;20.50;43.40;;;24.19;29.54;102237.63;5093832;28;20048;-41
2021/11/16 07:30:25;;;;;;;7.95;5.82;;;20.50;43.50;;;24.19;29.42;102239.41;5094069;28;20088;-40
2021/11/16 07:33:02;;;;;;;7.00;5.22;;;20.50;43.50;;;24.20;29.30;102238.47;5094021;28;20052;-40
2021/11/16 07:35:33;;;;;;;9.27;6.32;;;20.60;43.50;;;24.19;29.46;102237.63;5076553;28;20044;-39
2021/11/16 07:38:06;;;;;;;7.40;5.55;;;20.60;43.50;;;24.21;29.33;102240.22;5093277;28;20052;-39
2021/11/16 07:40:36;;;;;;;8.00;6.18;;;20.60;43.50;;;24.19;29.26;102237.63;5094251;28;20138;-39
2021/11/16 07:43:07;;;;;;;7.63;5.30;;;20.60;43.50;;;24.19;29.33;102231.38;5093902;28;20052;-40
2021/11/16 07:45:53;;;;;;;6.15;5.28;;;20.60;43.50;;;24.21;29.54;102232.19;5094140;28;20054;-40
2021/11/16 07:48:23;;;;;;;8.60;5.57;;;20.60;43.50;;;24.22;29.23;102234.78;5093583;28;20048;-39
2021/11/16 07:50:55;;;;;;;8.02;6.07;;;20.60;43.50;;;24.22;29.37;102234.78;5093684;28;20052;-41
2021/11/16 07:53:37;;;;;;;6.93;5.55;;;20.60;43.50;;;24.22;29.37;102232.13;5093833;28;20051;-40
2021/11/16 07:56:04;;;;;;;7.68;5.65;;;20.60;43.50;;;24.25;29.36;102230.22;5075352;28;20060;-39
2021/11/16 07:58:47;;;;;;;7.57;5.75;;;20.60;43.50;;;24.21;29.50;102227.69;5093638;28;20051;-39
2021/11/16 08:01:25;;;;;;;6.65;5.30;;;20.60;43.50;;;24.24;29.28;102224.03;5074194;28;20231;-40
2021/11/16 08:04:06;;;;;;;7.38;5.63;;;20.60;43.50;;;24.23;29.44;102217.78;5093584;28;20043;-40
2021/11/16 08:06:39;;;;;;;7.60;5.95;;;20.60;43.50;;;24.25;29.44;102215.03;5093375;28;20502;-39
2021/11/16 08:09:18;;;;;;;6.93;5.75;;;20.60;43.50;;;24.27;29.44;102218.47;5093435;28;20126;-39
2021/11/16 08:11:48;;;;;;;5.80;4.80;;;20.60;43.50;;;24.27;29.44;102222.97;5093801;28;20479;-39
2021/11/16 08:14:16;;;;;;;7.05;5.35;;;20.60;43.40;;;24.27;29.27;102223.81;5093266;28;20502;-40
2021/11/16 08:16:49;;;;;;;6.68;5.43;;;20.70;43.50;;;24.27;29.53;102228.31;5093029;28;20063;-39
2021/11/16 08:19:32;;;;;;;6.50;5.50;;;20.60;43.50;;;24.27;29.32;102231.00;5092373;28;20044;-39
2021/11/16 08:22:02;;;;;;;7.88;5.28;;;20.60;43.50;;;24.27;29.30;102218.47;5093146;28;20048;-39
2021/11/16 08:24:35;;;;;;;5.53;3.80;;;20.70;43.50;;;24.31;29.35;102222.72;5093296;28;20083;-39
2021/11/16 08:27:09;;;;;;;7.13;5.47;;;20.70;43.50;;;24.30;29.48;102217.47;5093409;28;20040;-40
2021/11/16 08:29:42;;;;;;;6.43;5.28;;;20.70;43.60;;;24.32;29.41;102212.88;5074808;28;20083;-39
2021/11/16 08:32:19;;;;;;;6.55;5.47;;;20.60;43.50;;;24.30;29.53;102210.28;5093286;28;20548;-39
2021/11/16 08:34:49;;;;;;;8.35;5.63;;;20.60;43.50;;;24.30;29.37;102199.59;5075558;28;20048;-39
2021/11/16 08:37:17;;;;;;;6.78;5.13;;;20.60;43.60;;;24.29;29.23;102208.59;5092801;28;20044;-39
2021/11/16 08:39:54;;;;;;;6.68;5.43;;;20.60;43.60;;;24.29;29.51;102221.94;5072667;28;20053;-39
2021/11/16 08:42:28;;;;;;;6.32;5.00;;;20.60;43.60;;;24.28;29.38;102200.66;5092758;28;20404;-40
2021/11/16 08:45:05;;;;;;;7.38;5.35;;;20.70;43.60;;;24.32;29.58;102204.88;5092984;28;20059;-40
2021/11/16 08:47:46;;;;;;;7.57;5.30;;;20.60;43.50;;;24.30;29.39;102207.63;5092545;28;20070;-40
2021/11/16 08:50:34;;;;;;;7.43;5.75;;;20.60;43.50;;;24.29;29.57;102213.94;5092775;28;20063;-40
2021/11/16 08:53:06;;;;;;;6.90;5.20;;;20.70;43.60;;;24.31;29.33;102203.16;5092580;28;20048;-39
2021/11/16 08:55:37;;;;;;;5.82;4.78;;;20.70;43.60;;;24.29;29.43;102211.25;5093226;28;20040;-41
2021/11/16 08:58:11;;;;;;;7.85;5.20;;;20.70;43.60;;;24.34;29.46;102210.97;5092789;28;20048;-40
2021/11/16 09:00:50;;;;;;;8.05;5.85;;;20.70;43.50;;;24.31;29.37;102203.16;5092942;28;20052;-39
2021/11/16 09:03:29;;;;;;;6.88;4.97;;;20.70;43.60;;;24.34;29.51;102205.63;5092734;28;20119;-46
2021/11/16 09:05:57;;;;;;;7.15;5.38;;;20.70;43.60;;;24.35;29.30;102197.53;5092449;28;20044;-40
2021/11/16 09:08:33;;;;;;;6.43;5.25;;;20.70;43.50;;;24.34;29.32;102198.50;5092602;28;20044;-41
2021/11/16 09:11:15;;;;;;;6.05;4.72;;;20.70;43.50;;;24.32;29.46;102192.34;5092862;28;20056;-40
2021/11/16 09:13:45;;;;;;;6.93;5.05;;;20.70;43.50;;;24.37;29.28;102195.66;5092468;28;20048;-39
2021/11/16 09:16:28;;;;;;;6.80;5.25;;;20.70;43.60;;;24.30;29.43;102182.72;5089862;28;20067;-40
2021/11/16 09:18:57;;;;;;;6.75;4.97;;;20.70;43.60;;;24.36;29.45;102182.38;5092421;28;20054;-41
2021/11/16 09:21:39;;;;;;;7.13;5.40;;;20.70;43.50;;;24.33;29.50;102185.22;5092726;28;20048;-39
2021/11/16 09:24:10;;;;;;;7.05;5.68;;;20.70;43.50;;;24.36;29.31;102193.06;5092710;28;20048;-39
2021/11/16 09:26:57;;;;;;;7.13;4.95;;;20.70;43.60;;;24.38;29.40;102191.16;5092649;28;20465;-40
2021/11/16 09:29:25;;;;;;;7.50;5.18;;;20.70;43.60;;;24.37;29.25;102190.31;5090030;28;20048;-39
2021/11/16 09:32:14;;;;;;;6.20;5.07;;;20.70;43.60;;;24.36;29.30;102195.75;5095915;28;20048;-40
2021/11/16 09:34:45;;;;;;;6.18;4.97;;;20.70;43.60;;;24.36;29.54;102185.91;5095876;28;20541;-39
2021/11/16 09:37:18;;;;;;;6.97;5.30;;;20.70;43.60;;;24.32;29.21;102168.31;5077573;28;20139;-42
2021/11/16 09:39:52;;;;;;;6.65;5.35;;;20.70;43.60;;;24.36;29.49;102185.91;5095626;28;20048;-41
2021/11/16 09:42:29;;;;;;;6.47;4.97;;;20.70;43.70;;;24.34;29.48;102177.13;5095762;28;20056;-40
2021/11/16 09:45:03;;;;;;;9.02;5.25;;;20.70;43.60;;;24.33;29.36;102163.84;5095632;28;20411;-39
2021/11/16 09:47:34;;;;;;;9.00;5.45;;;20.70;43.70;;;24.33;29.51;102171.84;5095419;28;20052;-40
2021/11/16 09:50:05;;;;;;;7.27;5.53;;;20.70;43.60;;;24.34;29.40;102168.22;5095938;28;20048;-40
2021/11/16 09:52:43;;;;;;;6.45;5.30;;;20.70;43.60;;;24.33;29.39;102175.38;5095956;28;20510;-40
2021/11/16 09:55:33;;;;;;;7.68;5.63;;;20.70;43.70;;;24.36;29.32;102171.69;5095379;28;20140;-40
2021/11/16 09:58:07;;;;;;;6.00;4.63;;;20.70;43.60;;;24.33;29.43;102161.16;5095374;28;20044;-40
2021/11/16 10:00:39;;;;;;;7.45;5.30;;;20.70;43.70;;;24.37;29.33;102173.41;5095416;28;20040;-40
2021/11/16 10:03:18;;;;;;;8.95;5.60;;;20.70;43.60;;;24.36;29.38;102174.38;5095380;28;20476;-40
2021/11/16 10:05:55;;;;;;;8.35;5.95;;;20.70;43.60;;;24.37;29.29;102171.59;5095366;28;20081;-37
2021/11/16 10:08:22;;;;;;;7.50;5.30;;;20.70;43.60;;;24.38;29.40;102169.78;5095082;28;20056;-40
2021/11/16 10:10:53;;;;;;;6.78;5.40;;;20.70;43.60;;;24.37;29.25;102158.25;5095799;28;20067;-38
2021/11/16 10:13:29;;;;;;;6.75;5.28;;;20.70;43.60;;;24.34;29.43;102149.50;5095683;28;20139;-38
2021/11/16 10:16:02;;;;;;;6.45;4.68;;;20.70;43.60;;;24.37;29.55;102154.69;5095574;28;20048;-42
2021/11/16 10:18:31;;;;;;;8.48;5.97;;;20.70;43.60;;;24.39;29.49;102150.09;5095273;28;20435;-38
2021/11/16 10:20:57;;;;;;;7.68;5.50;;;20.70;43.60;;;24.36;29.56;102134.25;5095331;28;20395;-38
2021/11/16 10:23:36;;;;;;;9.18;5.72;;;20.70;43.60;;;24.35;29.58;102136.06;5094923;28;20043;-38
2021/11/16 10:26:05;;;;;;;9.20;5.75;;;20.70;43.60;;;24.36;29.26;102129.78;5094889;28;20048;-38
2021/11/16 10:28:34;;;;;;;7.57;5.53;;;20.70;43.60;;;24.36;29.27;102128.91;5094796;28;20495;-39
2021/11/16 10:31:01;;;;;;;9.25;5.72;;;20.70;43.60;;;24.39;29.46;102123.38;5094964;28;20048;-38
2021/11/16 10:33:41;;;;;;;7.97;5.47;;;20.70;43.60;;;24.36;29.47;102108.38;5094822;28;20522;-38
2021/11/16 10:36:11;;;;;;;10.07;6.35;;;20.70;43.50;;;24.40;29.43;102119.75;5094826;28;20097;-38
2021/11/16 10:38:45;;;;;;;9.50;6.30;;;20.70;43.50;;;24.37;29.49;102106.56;5094663;28;20040;-38